createdAt,value
2018-04-09T00:01:29.496Z,0
2018-04-09T00:02:30.055Z,0
2018-04-09T00:03:30.637Z,0
2018-04-09T00:04:31.176Z,0
2018-04-09T00:05:31.729Z,0
2018-04-09T00:06:32.277Z,0
2018-04-09T00:07:32.833Z,0
2018-04-09T00:08:33.378Z,0
2018-04-09T00:09:33.929Z,0
2018-04-09T00:10:34.472Z,0
2018-04-09T00:11:35.022Z,0
2018-04-09T00:12:35.570Z,0
2018-04-09T00:13:36.124Z,0
2018-04-09T00:14:36.671Z,0
2018-04-09T00:15:37.216Z,0
2018-04-09T00:16:37.765Z,0
2018-04-09T00:17:38.310Z,0
2018-04-09T00:18:38.854Z,0
2018-04-09T00:19:39.401Z,0
2018-04-09T00:20:39.944Z,0
2018-04-09T00:21:40.489Z,0
2018-04-09T00:22:41.033Z,0
2018-04-09T00:23:41.576Z,0
2018-04-09T00:24:42.127Z,0
2018-04-09T00:25:42.675Z,0
2018-04-09T00:26:43.226Z,0
2018-04-09T00:27:43.778Z,0
2018-04-09T00:28:44.326Z,0
2018-04-09T00:29:44.877Z,0
2018-04-09T00:30:45.427Z,0
2018-04-09T00:31:45.972Z,0
2018-04-09T00:32:46.525Z,0
2018-04-09T00:33:47.071Z,0
2018-04-09T00:34:47.616Z,0
2018-04-09T00:35:48.161Z,0
2018-04-09T00:36:48.708Z,0
2018-04-09T00:37:49.254Z,0
2018-04-09T00:38:49.802Z,0
2018-04-09T00:39:50.352Z,0
2018-04-09T00:40:50.891Z,0
2018-04-09T00:41:51.440Z,0
2018-04-09T00:42:51.988Z,0
2018-04-09T00:43:52.533Z,0
2018-04-09T00:44:53.082Z,0
2018-04-09T00:45:53.623Z,0
2018-04-09T00:46:54.171Z,0
2018-04-09T00:47:54.725Z,0
2018-04-09T00:48:55.268Z,0
2018-04-09T00:49:55.816Z,0
2018-04-09T00:50:56.356Z,0
2018-04-09T00:51:56.910Z,0
2018-04-09T00:52:57.454Z,0
2018-04-09T00:53:57.996Z,0
2018-04-09T00:54:58.544Z,0
2018-04-09T00:55:59.089Z,0
2018-04-09T00:56:59.639Z,0
2018-04-09T00:58:00.179Z,0
2018-04-09T00:59:00.725Z,0
2018-04-09T01:00:01.276Z,0
2018-04-09T01:01:01.825Z,0
2018-04-09T01:02:02.371Z,0
2018-04-09T01:03:02.919Z,0
2018-04-09T01:04:03.463Z,0
2018-04-09T01:05:04.011Z,0
2018-04-09T01:06:04.562Z,0
2018-04-09T01:07:05.108Z,0
2018-04-09T01:08:05.659Z,0
2018-04-09T01:09:06.203Z,0
2018-04-09T01:10:06.757Z,0
2018-04-09T01:11:07.300Z,0
2018-04-09T01:12:07.853Z,0
2018-04-09T01:13:08.395Z,0
2018-04-09T01:14:08.942Z,0
2018-04-09T01:15:09.493Z,0
2018-04-09T01:16:10.044Z,0
2018-04-09T01:17:10.593Z,0
2018-04-09T01:18:11.137Z,0
2018-04-09T01:19:11.687Z,0
2018-04-09T01:20:12.234Z,0
2018-04-09T01:21:12.778Z,0
2018-04-09T01:22:13.327Z,0
2018-04-09T01:23:13.879Z,0
2018-04-09T01:24:14.415Z,0
2018-04-09T01:25:14.964Z,0
2018-04-09T01:26:15.515Z,0
2018-04-09T01:27:16.059Z,0
2018-04-09T01:28:16.601Z,0
2018-04-09T01:29:17.150Z,0
2018-04-09T01:30:17.697Z,0
2018-04-09T01:31:18.242Z,0
2018-04-09T01:32:18.787Z,0
2018-04-09T01:33:19.333Z,0
2018-04-09T01:34:19.878Z,0
2018-04-09T01:35:20.427Z,0
2018-04-09T01:36:20.997Z,0
2018-04-09T01:37:21.526Z,0
2018-04-09T01:38:22.079Z,0
2018-04-09T01:39:22.625Z,0
2018-04-09T01:40:23.180Z,0
2018-04-09T01:41:23.721Z,0
2018-04-09T01:42:24.269Z,0
2018-04-09T01:43:24.824Z,0
2018-04-09T01:44:25.366Z,0
2018-04-09T01:45:25.913Z,0
2018-04-09T01:46:26.460Z,0
2018-04-09T01:47:27.006Z,0
2018-04-09T01:48:27.550Z,0
2018-04-09T01:49:28.102Z,0
2018-04-09T01:50:28.650Z,0
2018-04-09T01:51:29.197Z,0
2018-04-09T01:52:29.740Z,0
2018-04-09T01:53:30.287Z,0
2018-04-09T01:54:30.839Z,0
2018-04-09T01:55:31.385Z,0
2018-04-09T01:56:31.933Z,0
2018-04-09T01:57:32.482Z,0
2018-04-09T01:58:33.029Z,0
2018-04-09T01:59:33.572Z,0
2018-04-09T02:00:34.120Z,0
2018-04-09T02:01:34.670Z,0
2018-04-09T02:02:35.214Z,0
2018-04-09T02:03:35.763Z,0
2018-04-09T02:04:36.308Z,0
2018-04-09T02:05:36.851Z,0
2018-04-09T02:06:37.390Z,0
2018-04-09T02:07:37.937Z,0
2018-04-09T02:08:38.477Z,0
2018-04-09T02:09:39.027Z,0
2018-04-09T02:10:39.571Z,0
2018-04-09T02:11:40.111Z,0
2018-04-09T02:12:40.655Z,0
2018-04-09T02:13:41.202Z,0
2018-04-09T02:14:41.744Z,0
2018-04-09T02:15:42.291Z,0
2018-04-09T02:16:42.835Z,0
2018-04-09T02:17:43.388Z,0
2018-04-09T02:18:43.927Z,0
2018-04-09T02:19:44.477Z,0
2018-04-09T02:20:45.023Z,0
2018-04-09T02:21:45.568Z,0
2018-04-09T02:22:46.108Z,0
2018-04-09T02:23:46.657Z,0
2018-04-09T02:24:47.206Z,0
2018-04-09T02:25:47.753Z,0
2018-04-09T02:26:48.335Z,0
2018-04-09T02:27:48.853Z,0
2018-04-09T02:28:49.391Z,0
2018-04-09T02:29:49.934Z,0
2018-04-09T02:30:50.483Z,0
2018-04-09T02:31:51.040Z,0
2018-04-09T02:32:51.583Z,0
2018-04-09T02:33:52.124Z,0
2018-04-09T02:34:52.673Z,0
2018-04-09T02:35:53.217Z,0
2018-04-09T02:36:53.759Z,0
2018-04-09T02:37:54.302Z,0
2018-04-09T02:38:54.849Z,0
2018-04-09T02:39:55.398Z,0
2018-04-09T02:40:55.947Z,0
2018-04-09T02:41:56.490Z,0
2018-04-09T02:42:57.033Z,0
2018-04-09T02:43:57.591Z,0
2018-04-09T02:44:58.131Z,0
2018-04-09T02:45:58.681Z,0
2018-04-09T02:46:59.229Z,0
2018-04-09T02:47:59.779Z,0
2018-04-09T02:49:00.329Z,0
2018-04-09T02:50:00.873Z,0
2018-04-09T02:51:01.423Z,0
2018-04-09T02:52:01.962Z,0
2018-04-09T02:53:02.510Z,0
2018-04-09T02:54:03.055Z,0
2018-04-09T02:55:03.601Z,0
2018-04-09T02:56:04.144Z,0
2018-04-09T02:57:04.686Z,0
2018-04-09T02:58:05.233Z,0
2018-04-09T02:59:05.775Z,0
2018-04-09T03:00:06.324Z,0
2018-04-09T03:01:06.869Z,0
2018-04-09T03:02:07.408Z,0
2018-04-09T03:03:07.950Z,0
2018-04-09T03:04:08.494Z,0
2018-04-09T03:05:09.056Z,0
2018-04-09T03:06:09.585Z,0
2018-04-09T03:07:10.135Z,0
2018-04-09T03:08:10.680Z,0
2018-04-09T03:09:11.224Z,0
2018-04-09T03:10:11.772Z,0
2018-04-09T03:11:12.311Z,0
2018-04-09T03:12:12.856Z,0
2018-04-09T03:13:13.402Z,0
2018-04-09T03:14:13.950Z,0
2018-04-09T03:15:14.498Z,0
2018-04-09T03:16:15.044Z,0
2018-04-09T03:17:15.589Z,0
2018-04-09T03:18:16.136Z,0
2018-04-09T03:19:16.686Z,0
2018-04-09T03:20:17.231Z,0
2018-04-09T03:21:17.793Z,0
2018-04-09T03:22:18.328Z,0
2018-04-09T03:23:18.875Z,0
2018-04-09T03:24:19.440Z,0
2018-04-09T03:25:19.976Z,0
2018-04-09T03:26:20.524Z,0
2018-04-09T03:27:21.064Z,0
2018-04-09T03:28:21.606Z,0
2018-04-09T03:29:22.154Z,0
2018-04-09T03:30:22.710Z,0
2018-04-09T03:31:23.259Z,0
2018-04-09T03:32:23.801Z,0
2018-04-09T03:33:24.349Z,0
2018-04-09T03:34:24.899Z,0
2018-04-09T03:35:25.450Z,0
2018-04-09T03:36:25.993Z,0
2018-04-09T03:37:26.544Z,0
2018-04-09T03:38:27.089Z,0
2018-04-09T03:39:27.633Z,0
2018-04-09T03:40:28.188Z,0
2018-04-09T03:41:28.727Z,0
2018-04-09T03:42:29.280Z,0
2018-04-09T03:43:29.823Z,0
2018-04-09T03:44:30.366Z,0
2018-04-09T03:45:30.912Z,0
2018-04-09T03:46:31.462Z,0
2018-04-09T03:47:32.008Z,0
2018-04-09T03:48:32.550Z,0
2018-04-09T03:49:33.093Z,0
2018-04-09T03:50:33.640Z,0
2018-04-09T03:51:34.191Z,0
2018-04-09T03:52:34.788Z,0
2018-04-09T03:53:35.277Z,0
2018-04-09T03:54:35.823Z,0
2018-04-09T03:55:36.361Z,0
2018-04-09T03:56:36.908Z,0
2018-04-09T03:57:37.449Z,0
2018-04-09T03:58:38.006Z,0
2018-04-09T03:59:38.550Z,0
2018-04-09T04:00:39.099Z,0
2018-04-09T04:01:39.647Z,0
2018-04-09T04:02:40.189Z,0
2018-04-09T04:03:40.735Z,0
2018-04-09T04:04:41.282Z,0
2018-04-09T04:05:41.834Z,0
2018-04-09T04:06:42.376Z,0
2018-04-09T04:07:42.923Z,0
2018-04-09T04:08:43.473Z,0
2018-04-09T04:09:44.015Z,0
2018-04-09T04:10:44.557Z,0
2018-04-09T04:11:45.157Z,0
2018-04-09T04:12:45.702Z,0
2018-04-09T04:13:46.243Z,0
2018-04-09T04:14:46.794Z,0
2018-04-09T04:15:47.331Z,0
2018-04-09T04:16:47.882Z,0
2018-04-09T04:17:48.430Z,0
2018-04-09T04:18:48.975Z,0
2018-04-09T04:19:49.526Z,4
2018-04-09T04:20:50.069Z,4
2018-04-09T04:21:50.623Z,0
2018-04-09T04:22:51.166Z,4
2018-04-09T04:23:51.718Z,4
2018-04-09T04:24:52.262Z,4
2018-04-09T04:25:52.803Z,4
2018-04-09T04:26:53.348Z,4
2018-04-09T04:27:53.895Z,8
2018-04-09T04:28:54.450Z,12
2018-04-09T04:29:54.993Z,12
2018-04-09T04:30:55.546Z,16
2018-04-09T04:31:56.092Z,16
2018-04-09T04:32:56.636Z,20
2018-04-09T04:33:57.180Z,24
2018-04-09T04:34:57.731Z,28
2018-04-09T04:35:58.276Z,32
2018-04-09T04:36:58.826Z,40
2018-04-09T04:37:59.380Z,44
2018-04-09T04:38:59.923Z,52
2018-04-09T04:40:00.471Z,64
2018-04-09T04:41:01.022Z,76
2018-04-09T04:42:01.565Z,88
2018-04-09T04:43:02.115Z,100
2018-04-09T04:44:02.658Z,116
2018-04-09T04:45:03.206Z,136
2018-04-09T04:46:03.762Z,156
2018-04-09T04:47:04.308Z,176
2018-04-09T04:48:04.857Z,196
2018-04-09T04:49:05.403Z,224
2018-04-09T04:50:05.954Z,252
2018-04-09T04:51:06.502Z,276
2018-04-09T04:52:07.044Z,304
2018-04-09T04:53:07.589Z,332
2018-04-09T04:54:08.141Z,360
2018-04-09T04:55:08.683Z,388
2018-04-09T04:56:09.234Z,420
2018-04-09T04:57:09.787Z,456
2018-04-09T04:58:10.332Z,488
2018-04-09T04:59:10.884Z,532
2018-04-09T05:00:11.439Z,580
2018-04-09T05:01:11.992Z,632
2018-04-09T05:02:12.542Z,692
2018-04-09T05:03:13.163Z,760
2018-04-09T05:04:13.648Z,840
2018-04-09T05:05:14.194Z,924
2018-04-09T05:06:14.743Z,1020
2018-04-09T05:07:15.290Z,1112
2018-04-09T05:08:15.835Z,1216
2018-04-09T05:09:16.387Z,1316
2018-04-09T05:10:16.932Z,1424
2018-04-09T05:11:17.481Z,1540
2018-04-09T05:12:18.032Z,1668
2018-04-09T05:13:18.582Z,1800
2018-04-09T05:14:19.124Z,1936
2018-04-09T05:15:19.674Z,2064
2018-04-09T05:16:20.232Z,2196
2018-04-09T05:17:20.776Z,2328
2018-04-09T05:18:21.326Z,2444
2018-04-09T05:19:21.874Z,2556
2018-04-09T05:20:22.428Z,2672
2018-04-09T05:21:22.978Z,2784
2018-04-09T05:22:23.533Z,2904
2018-04-09T05:23:24.078Z,3004
2018-04-09T05:24:24.644Z,3096
2018-04-09T05:25:25.179Z,3196
2018-04-09T05:26:25.738Z,3308
2018-04-09T05:27:26.302Z,3412
2018-04-09T05:28:26.846Z,3508
2018-04-09T05:29:27.403Z,3588
2018-04-09T05:30:27.959Z,3680
2018-04-09T05:31:28.508Z,3780
2018-04-09T05:32:29.056Z,3856
2018-04-09T05:33:29.612Z,3924
2018-04-09T05:34:30.169Z,3984
2018-04-09T05:35:30.723Z,4032
2018-04-09T05:36:31.280Z,4068
2018-04-09T05:37:31.835Z,4116
2018-04-09T05:38:32.386Z,4152
2018-04-09T05:39:32.933Z,4196
2018-04-09T05:40:33.490Z,4236
2018-04-09T05:41:34.038Z,4292
2018-04-09T05:42:34.588Z,4344
2018-04-09T05:43:35.138Z,4408
2018-04-09T05:44:35.697Z,4496
2018-04-09T05:45:36.252Z,4596
2018-04-09T05:46:36.814Z,4720
2018-04-09T05:47:37.365Z,4852
2018-04-09T05:48:37.918Z,4968
2018-04-09T05:49:38.472Z,5088
2018-04-09T05:50:39.023Z,5212
2018-04-09T05:51:39.576Z,5324
2018-04-09T05:52:40.126Z,5400
2018-04-09T05:53:40.676Z,5464
2018-04-09T05:54:41.227Z,5476
2018-04-09T05:55:41.779Z,5548
2018-04-09T05:56:42.339Z,5692
2018-04-09T05:57:42.884Z,5764
2018-04-09T05:58:43.434Z,5828
2018-04-09T05:59:43.988Z,5864
2018-04-09T06:00:44.545Z,5912
2018-04-09T06:01:45.092Z,5984
2018-04-09T06:02:45.648Z,6064
2018-04-09T06:03:46.249Z,6116
2018-04-09T06:04:46.753Z,6168
2018-04-09T06:05:47.313Z,6236
2018-04-09T06:06:47.870Z,6352
2018-04-09T06:07:48.420Z,6488
2018-04-09T06:08:48.974Z,6620
2018-04-09T06:09:49.523Z,6736
2018-04-09T06:10:50.082Z,6792
2018-04-09T06:11:50.639Z,6860
2018-04-09T06:12:51.187Z,6884
2018-04-09T06:13:51.742Z,6908
2018-04-09T06:14:52.297Z,6928
2018-04-09T06:15:52.847Z,6928
2018-04-09T06:16:53.401Z,6944
2018-04-09T06:17:53.952Z,6960
2018-04-09T06:18:54.503Z,7044
2018-04-09T06:19:55.062Z,7200
2018-04-09T06:20:55.620Z,7560
2018-04-09T06:21:56.166Z,8268
2018-04-09T06:22:56.761Z,7992
2018-04-09T06:23:57.317Z,8076
2018-04-09T06:24:57.871Z,8200
2018-04-09T06:25:58.474Z,8320
2018-04-09T06:26:59.024Z,8436
2018-04-09T06:27:59.578Z,8492
2018-04-09T06:29:00.128Z,8480
2018-04-09T06:30:00.678Z,8388
2018-04-09T06:31:01.238Z,8256
2018-04-09T06:32:01.783Z,8164
2018-04-09T06:33:02.335Z,8216
2018-04-09T06:34:02.899Z,8640
2018-04-09T06:35:03.466Z,10048
2018-04-09T06:36:04.022Z,9756
2018-04-09T06:37:04.580Z,9412
2018-04-09T06:38:05.137Z,9464
2018-04-09T06:39:05.690Z,9744
2018-04-09T06:40:06.242Z,10172
2018-04-09T06:41:06.803Z,10944
2018-04-09T06:42:07.355Z,10976
2018-04-09T06:43:07.907Z,11764
2018-04-09T06:44:08.462Z,10688
2018-04-09T06:45:09.018Z,10456
2018-04-09T06:46:09.574Z,10356
2018-04-09T06:47:10.130Z,10380
2018-04-09T06:48:10.687Z,10492
2018-04-09T06:49:11.245Z,10700
2018-04-09T06:50:11.835Z,10916
2018-04-09T06:51:12.375Z,11156
2018-04-09T06:52:12.935Z,11368
2018-04-09T06:53:13.491Z,11596
2018-04-09T06:54:14.043Z,11816
2018-04-09T06:55:14.596Z,12000
2018-04-09T06:56:15.153Z,12176
2018-04-09T06:57:15.706Z,12356
2018-04-09T06:58:16.254Z,12524
2018-04-09T06:59:16.809Z,12660
2018-04-09T07:00:17.369Z,12752
2018-04-09T07:01:17.925Z,12824
2018-04-09T07:02:18.475Z,12848
2018-04-09T07:03:19.031Z,12908
2018-04-09T07:04:19.586Z,12980
2018-04-09T07:05:20.136Z,13044
2018-04-09T07:06:20.690Z,13112
2018-04-09T07:07:21.248Z,13140
2018-04-09T07:08:21.803Z,13468
2018-04-09T07:09:22.363Z,13548
2018-04-09T07:10:22.923Z,13708
2018-04-09T07:11:23.475Z,13980
2018-04-09T07:12:24.025Z,14252
2018-04-09T07:13:24.579Z,14524
2018-04-09T07:14:25.135Z,14848
2018-04-09T07:15:25.691Z,15832
2018-04-09T07:16:26.246Z,16080
2018-04-09T07:17:26.807Z,16648
2018-04-09T07:18:27.353Z,17444
2018-04-09T07:19:27.909Z,17356
2018-04-09T07:20:28.469Z,16956
2018-04-09T07:21:29.020Z,17136
2018-04-09T07:22:29.577Z,17356
2018-04-09T07:23:30.133Z,17748
2018-04-09T07:24:30.696Z,17884
2018-04-09T07:25:31.249Z,19168
2018-04-09T07:26:31.802Z,19232
2018-04-09T07:27:32.403Z,17400
2018-04-09T07:28:32.917Z,16896
2018-04-09T07:29:33.478Z,17548
2018-04-09T07:30:34.032Z,17664
2018-04-09T07:31:34.587Z,16948
2018-04-09T07:32:35.157Z,18196
2018-04-09T07:33:35.708Z,18720
2018-04-09T07:34:36.261Z,22048
2018-04-09T07:35:36.816Z,18944
2018-04-09T07:36:37.372Z,18752
2018-04-09T07:37:37.926Z,16892
2018-04-09T07:38:38.482Z,17580
2018-04-09T07:39:40.046Z,16928
2018-04-09T07:40:40.594Z,17048
2018-04-09T07:41:41.149Z,17804
2018-04-09T07:42:41.702Z,18400
2018-04-09T07:43:42.264Z,18244
2018-04-09T07:44:42.827Z,18556
2018-04-09T07:45:43.385Z,18944
2018-04-09T07:46:43.935Z,19008
2018-04-09T07:47:44.493Z,19328
2018-04-09T07:48:45.052Z,19168
2018-04-09T07:49:45.611Z,19168
2018-04-09T07:50:46.163Z,20096
2018-04-09T07:51:46.761Z,19776
2018-04-09T07:52:47.273Z,19712
2018-04-09T07:53:47.833Z,19040
2018-04-09T07:54:48.390Z,18944
2018-04-09T07:55:48.950Z,19168
2018-04-09T07:56:49.518Z,19136
2018-04-09T07:57:50.071Z,19360
2018-04-09T07:58:50.629Z,19552
2018-04-09T07:59:51.200Z,19904
2018-04-09T08:00:51.754Z,20160
2018-04-09T08:01:52.303Z,20416
2018-04-09T08:02:52.862Z,20352
2018-04-09T08:03:53.414Z,20480
2018-04-09T08:04:53.975Z,20416
2018-04-09T08:05:54.546Z,20640
2018-04-09T08:06:55.106Z,20544
2018-04-09T08:07:55.657Z,20736
2018-04-09T08:08:56.221Z,20960
2018-04-09T08:09:56.789Z,21184
2018-04-09T08:10:57.347Z,21056
2018-04-09T08:11:57.923Z,21216
2018-04-09T08:12:58.494Z,21408
2018-04-09T08:13:59.069Z,21728
2018-04-09T08:14:59.635Z,21920
2018-04-09T08:16:00.206Z,22112
2018-04-09T08:17:00.768Z,22304
2018-04-09T08:18:01.328Z,22496
2018-04-09T08:19:01.899Z,23136
2018-04-09T08:20:02.460Z,22976
2018-04-09T08:21:03.037Z,23328
2018-04-09T08:22:03.587Z,23840
2018-04-09T08:23:04.143Z,25056
2018-04-09T08:24:04.816Z,27808
2018-04-09T08:25:05.418Z,35584
2018-04-09T08:26:05.926Z,36224
2018-04-09T08:27:06.489Z,30336
2018-04-09T08:28:07.049Z,28256
2018-04-09T08:29:07.607Z,28192
2018-04-09T08:30:08.164Z,28672
2018-04-09T08:31:08.722Z,30656
2018-04-09T08:32:09.282Z,30848
2018-04-09T08:33:09.839Z,31008
2018-04-09T08:34:10.407Z,30688
2018-04-09T08:35:10.974Z,30464
2018-04-09T08:36:11.538Z,31072
2018-04-09T08:37:12.098Z,30112
2018-04-09T08:38:12.656Z,31008
2018-04-09T08:39:13.209Z,31616
2018-04-09T08:40:13.774Z,31456
2018-04-09T08:41:14.332Z,32000
2018-04-09T08:42:14.889Z,31552
2018-04-09T08:43:15.449Z,32192
2018-04-09T08:44:16.009Z,30528
2018-04-09T08:45:16.568Z,30112
2018-04-09T08:46:17.138Z,29984
2018-04-09T08:47:17.698Z,29632
2018-04-09T08:48:18.260Z,29056
2018-04-09T08:49:18.836Z,28416
2018-04-09T08:50:19.407Z,28000
2018-04-09T08:51:19.967Z,27488
2018-04-09T08:52:20.522Z,27328
2018-04-09T08:53:21.076Z,28352
2018-04-09T08:54:21.638Z,28320
2018-04-09T08:55:22.209Z,28288
2018-04-09T08:56:22.760Z,31072
2018-04-09T08:57:23.318Z,28416
2018-04-09T08:58:23.879Z,26624
2018-04-09T08:59:24.496Z,26368
2018-04-09T09:00:25.061Z,26752
2018-04-09T09:01:25.628Z,28160
2018-04-09T09:02:26.389Z,28672
2018-04-09T09:03:26.996Z,28032
2018-04-09T09:04:27.565Z,28256
2018-04-09T09:05:28.130Z,27904
2018-04-09T09:06:28.708Z,27744
2018-04-09T09:07:29.269Z,27328
2018-04-09T09:08:29.848Z,27328
2018-04-09T09:09:30.387Z,27168
2018-04-09T09:10:30.955Z,27264
2018-04-09T09:11:31.514Z,27680
2018-04-09T09:12:32.069Z,27680
2018-04-09T09:13:32.630Z,27872
2018-04-09T09:14:33.202Z,28640
2018-04-09T09:15:33.760Z,29888
2018-04-09T09:16:34.319Z,30336
2018-04-09T09:17:34.882Z,34528
2018-04-09T09:18:35.450Z,45504
2018-04-09T09:19:36.008Z,59232
2018-04-09T09:20:36.573Z,58592
2018-04-09T09:21:37.144Z,52384
2018-04-09T09:22:37.713Z,52608
2018-04-09T09:23:38.280Z,47424
2018-04-09T09:24:38.836Z,48704
2018-04-09T09:25:39.450Z,53728
2018-04-09T09:26:40.010Z,51584
2018-04-09T09:27:40.578Z,46944
2018-04-09T09:28:41.146Z,45536
2018-04-09T09:29:41.707Z,47360
2018-04-09T09:30:42.264Z,52992
2018-04-09T09:31:42.828Z,51104
2018-04-09T09:32:43.399Z,52512
2018-04-09T09:33:43.964Z,51648
2018-04-09T09:34:44.520Z,44480
2018-04-09T09:35:45.083Z,39584
2018-04-09T09:36:45.645Z,39520
2018-04-09T09:37:46.206Z,42592
2018-04-09T09:38:46.778Z,47008
2018-04-09T09:39:47.336Z,52384
2018-04-09T09:40:47.895Z,50720
2018-04-09T09:41:48.467Z,49728
2018-04-09T09:42:49.021Z,43712
2018-04-09T09:43:49.582Z,40608
2018-04-09T09:44:50.142Z,35936
2018-04-09T09:45:50.709Z,33696
2018-04-09T09:46:51.273Z,31232
2018-04-09T09:47:51.838Z,29760
2018-04-09T09:48:52.397Z,27936
2018-04-09T09:49:52.962Z,26816
2018-04-09T09:50:53.526Z,25568
2018-04-09T09:51:54.094Z,25056
2018-04-09T09:52:54.658Z,26048
2018-04-09T09:53:55.218Z,27680
2018-04-09T09:54:55.907Z,28576
2018-04-09T09:55:56.460Z,28704
2018-04-09T09:56:57.021Z,28288
2018-04-09T09:57:57.587Z,28000
2018-04-09T09:58:58.146Z,27488
2018-04-09T09:59:58.720Z,27904
2018-04-09T10:00:59.276Z,29280
2018-04-09T10:01:59.833Z,29696
2018-04-09T10:03:00.404Z,30528
2018-04-09T10:04:00.975Z,31136
2018-04-09T10:05:01.545Z,31264
2018-04-09T10:06:02.108Z,32224
2018-04-09T10:07:02.668Z,31488
2018-04-09T10:08:03.228Z,31168
2018-04-09T10:09:03.797Z,30432
2018-04-09T10:10:04.362Z,30144
2018-04-09T10:11:04.920Z,29952
2018-04-09T10:12:05.482Z,30080
2018-04-09T10:13:06.046Z,30304
2018-04-09T10:14:06.613Z,30624
2018-04-09T10:15:07.182Z,31040
2018-04-09T10:16:07.752Z,31168
2018-04-09T10:17:08.305Z,31520
2018-04-09T10:18:08.883Z,31616
2018-04-09T10:19:09.455Z,31840
2018-04-09T10:20:10.024Z,31744
2018-04-09T10:21:10.595Z,31904
2018-04-09T10:22:11.168Z,31872
2018-04-09T10:23:11.728Z,32000
2018-04-09T10:24:12.303Z,31616
2018-04-09T10:25:12.863Z,31904
2018-04-09T10:26:13.430Z,31584
2018-04-09T10:27:14.003Z,31360
2018-04-09T10:28:14.562Z,31552
2018-04-09T10:29:15.335Z,32096
2018-04-09T10:30:15.900Z,32256
2018-04-09T10:31:16.477Z,32672
2018-04-09T10:32:17.045Z,32992
2018-04-09T10:33:17.602Z,33472
2018-04-09T10:34:18.173Z,33600
2018-04-09T10:35:18.738Z,34112
2018-04-09T10:36:19.311Z,35328
2018-04-09T10:37:19.882Z,35968
2018-04-09T10:38:20.457Z,38176
2018-04-09T10:39:21.028Z,41216
2018-04-09T10:40:21.604Z,53056
2018-04-09T10:41:22.200Z,53248
2018-04-09T10:42:22.754Z,58400
2018-04-09T10:43:23.320Z,53088
2018-04-09T10:44:23.876Z,52672
2018-04-09T10:45:24.441Z,51904
2018-04-09T10:46:25.007Z,54016
2018-04-09T10:47:25.580Z,51840
2018-04-09T10:48:26.155Z,46592
2018-04-09T10:49:26.730Z,52384
2018-04-09T10:50:27.298Z,68352
2018-04-09T10:51:27.869Z,62336
2018-04-09T10:52:28.443Z,53312
2018-04-09T10:53:29.002Z,51712
2018-04-09T10:54:29.578Z,45856
2018-04-09T10:55:30.144Z,42784
2018-04-09T10:56:30.721Z,39040
2018-04-09T10:57:31.312Z,46016
2018-04-09T10:58:31.875Z,43424
2018-04-09T10:59:32.447Z,43040
2018-04-09T11:00:33.012Z,39360
2018-04-09T11:01:33.587Z,36000
2018-04-09T11:02:34.160Z,35072
2018-04-09T11:03:34.732Z,35136
2018-04-09T11:04:35.296Z,35232
2018-04-09T11:05:35.860Z,36352
2018-04-09T11:06:36.432Z,37344
2018-04-09T11:07:37.014Z,38656
2018-04-09T11:08:37.577Z,41344
2018-04-09T11:09:38.147Z,47232
2018-04-09T11:10:38.714Z,51328
2018-04-09T11:11:39.315Z,54208
2018-04-09T11:12:39.854Z,56608
2018-04-09T11:13:40.423Z,56704
2018-04-09T11:14:40.995Z,53952
2018-04-09T11:15:41.578Z,52000
2018-04-09T11:16:42.142Z,51904
2018-04-09T11:17:42.708Z,48384
2018-04-09T11:18:43.291Z,46752
2018-04-09T11:19:43.852Z,43648
2018-04-09T11:20:44.419Z,41824
2018-04-09T11:21:44.992Z,39968
2018-04-09T11:22:45.765Z,37856
2018-04-09T11:23:46.333Z,37920
2018-04-09T11:24:46.893Z,36352
2018-04-09T11:25:47.468Z,34848
2018-04-09T11:26:48.025Z,33280
2018-04-09T11:27:48.791Z,31808
2018-04-09T11:28:49.357Z,30688
2018-04-09T11:29:49.921Z,29632
2018-04-09T11:30:50.484Z,28736
2018-04-09T11:31:51.049Z,28128
2018-04-09T11:32:51.613Z,27648
2018-04-09T11:33:52.172Z,27328
2018-04-09T11:34:52.739Z,27072
2018-04-09T11:35:53.294Z,26944
2018-04-09T11:36:53.868Z,26752
2018-04-09T11:37:54.427Z,26528
2018-04-09T11:38:54.991Z,26144
2018-04-09T11:39:55.559Z,25824
2018-04-09T11:40:56.146Z,25504
2018-04-09T11:41:56.694Z,25216
2018-04-09T11:42:57.261Z,25056
2018-04-09T11:43:57.838Z,25056
2018-04-09T11:44:58.400Z,25152
2018-04-09T11:45:58.968Z,25408
2018-04-09T11:46:59.537Z,25664
2018-04-09T11:48:00.095Z,25984
2018-04-09T11:49:00.653Z,26112
2018-04-09T11:50:01.212Z,26144
2018-04-09T11:51:01.771Z,26400
2018-04-09T11:52:02.345Z,26656
2018-04-09T11:53:02.910Z,27040
2018-04-09T11:54:03.463Z,27936
2018-04-09T11:55:04.032Z,28800
2018-04-09T11:56:04.594Z,30016
2018-04-09T11:57:05.164Z,31296
2018-04-09T11:58:05.757Z,32704
2018-04-09T11:59:06.272Z,32960
2018-04-09T12:00:06.834Z,34304
2018-04-09T12:01:07.408Z,35328
2018-04-09T12:02:07.975Z,35296
2018-04-09T12:03:08.538Z,35808
2018-04-09T12:04:09.097Z,36064
2018-04-09T12:05:09.674Z,35040
2018-04-09T12:06:10.238Z,34080
2018-04-09T12:07:10.811Z,33184
2018-04-09T12:08:11.383Z,32256
2018-04-09T12:09:11.967Z,31264
2018-04-09T12:10:12.537Z,30496
2018-04-09T12:11:13.097Z,29792
2018-04-09T12:12:13.678Z,29120
2018-04-09T12:13:14.244Z,28640
2018-04-09T12:14:14.809Z,28384
2018-04-09T12:15:15.386Z,28224
2018-04-09T12:16:15.945Z,28288
2018-04-09T12:17:16.526Z,28320
2018-04-09T12:18:17.145Z,28416
2018-04-09T12:19:17.881Z,28352
2018-04-09T12:20:18.446Z,28256
2018-04-09T12:21:19.008Z,28064
2018-04-09T12:22:19.572Z,27744
2018-04-09T12:23:20.146Z,27328
2018-04-09T12:24:20.709Z,26880
2018-04-09T12:25:21.286Z,26336
2018-04-09T12:26:21.850Z,25792
2018-04-09T12:27:22.404Z,25216
2018-04-09T12:28:22.975Z,24640
2018-04-09T12:29:23.542Z,24160
2018-04-09T12:30:24.120Z,23744
2018-04-09T12:31:24.695Z,23424
2018-04-09T12:32:25.276Z,23168
2018-04-09T12:33:25.849Z,23040
2018-04-09T12:34:26.410Z,22912
2018-04-09T12:35:26.974Z,22816
2018-04-09T12:36:27.548Z,22752
2018-04-09T12:37:28.097Z,22752
2018-04-09T12:38:28.665Z,22816
2018-04-09T12:39:29.227Z,22016
2018-04-09T12:40:29.783Z,23008
2018-04-09T12:41:30.357Z,23200
2018-04-09T12:42:30.923Z,23232
2018-04-09T12:43:31.486Z,23200
2018-04-09T12:44:32.049Z,23040
2018-04-09T12:45:32.612Z,22656
2018-04-09T12:46:33.174Z,22112
2018-04-09T12:47:33.743Z,21472
2018-04-09T12:48:34.307Z,20800
2018-04-09T12:49:34.869Z,20192
2018-04-09T12:50:35.434Z,19648
2018-04-09T12:51:36.003Z,19232
2018-04-09T12:52:36.570Z,18848
2018-04-09T12:53:37.136Z,18444
2018-04-09T12:54:37.691Z,18264
2018-04-09T12:55:38.261Z,18148
2018-04-09T12:56:38.828Z,18060
2018-04-09T12:57:39.396Z,17980
2018-04-09T12:58:39.961Z,17896
2018-04-09T12:59:40.527Z,17836
2018-04-09T13:00:41.088Z,17812
2018-04-09T13:01:41.649Z,17772
2018-04-09T13:02:42.214Z,17724
2018-04-09T13:03:42.776Z,17628
2018-04-09T13:04:43.333Z,17480
2018-04-09T13:05:43.900Z,17324
2018-04-09T13:06:44.465Z,17236
2018-04-09T13:07:45.060Z,17256
2018-04-09T13:08:45.586Z,17432
2018-04-09T13:09:46.155Z,17812
2018-04-09T13:10:46.708Z,18592
2018-04-09T13:11:47.273Z,19392
2018-04-09T13:12:47.842Z,20288
2018-04-09T13:13:48.402Z,21312
2018-04-09T13:14:48.970Z,22240
2018-04-09T13:15:49.534Z,23168
2018-04-09T13:16:50.101Z,23968
2018-04-09T13:17:50.651Z,24896
2018-04-09T13:18:51.209Z,25952
2018-04-09T13:19:51.763Z,27008
2018-04-09T13:20:52.333Z,28000
2018-04-09T13:21:52.923Z,28928
2018-04-09T13:22:53.481Z,29824
2018-04-09T13:23:54.028Z,30496
2018-04-09T13:24:54.593Z,31136
2018-04-09T13:25:55.167Z,31072
2018-04-09T13:26:55.740Z,30720
2018-04-09T13:27:56.312Z,30240
2018-04-09T13:28:56.888Z,29600
2018-04-09T13:29:57.464Z,28864
2018-04-09T13:30:58.029Z,28256
2018-04-09T13:31:58.600Z,27872
2018-04-09T13:32:59.175Z,28320
2018-04-09T13:33:59.738Z,28096
2018-04-09T13:35:00.309Z,29472
2018-04-09T13:36:00.878Z,30240
2018-04-09T13:37:01.447Z,33984
2018-04-09T13:38:02.015Z,34144
2018-04-09T13:39:02.579Z,36416
2018-04-09T13:40:03.158Z,37888
2018-04-09T13:41:03.720Z,37024